Time;durP1;ratioP1;P1;durP2;ratioP2;P2;SDS_P1;SDS_P2;PMS_P1;PMS_P2;Temp;Humidity;BMP_temperature;BMP_pressure;BME280_temperature;BME280_humidity;BME280_pressure;Samples;Min_cycle;Max_cycle;Signal;HPM_P1;HPM_P2
2022/04/25 00:00:36;;;;;;;12.35;7.80;;;9.20;99.90;;;;;;5024424;28;20049;-72
2022/04/25 00:03:03;;;;;;;14.43;8.88;;;9.10;99.90;;;;;;5028096;28;20816;-72
2022/04/25 00:05:29;;;;;;;13.13;9.23;;;9.10;99.90;;;;;;5009366;28;20811;-73
2022/04/25 00:07:56;;;;;;;12.80;8.93;;;9.10;99.90;;;;;;4989646;28;20053;-72
2022/04/25 00:10:22;;;;;;;13.65;9.05;;;9.10;99.90;;;;;;4991086;28;20107;-72
2022/04/25 00:12:48;;;;;;;13.70;9.75;;;9.10;99.90;;;;;;5008836;28;20048;-72
2022/04/25 00:15:14;;;;;;;14.30;9.27;;;9.10;99.90;;;;;;5007190;28;20147;-72
2022/04/25 00:17:40;;;;;;;14.10;9.27;;;9.00;99.90;;;;;;4991555;28;20049;-72
2022/04/25 00:20:10;;;;;;;14.85;9.23;;;9.00;99.90;;;;;;5007404;28;20589;-72
2022/04/25 00:22:36;;;;;;;12.45;8.20;;;9.00;99.90;;;;;;5018816;28;20101;-73
2022/04/25 00:25:02;;;;;;;13.95;9.40;;;9.10;99.90;;;;;;4993505;28;20052;-72
2022/04/25 00:27:29;;;;;;;13.82;9.85;;;9.00;99.90;;;;;;5008501;28;20611;-72
2022/04/25 00:29:56;;;;;;;13.88;9.80;;;9.00;99.90;;;;;;5010292;28;20515;-73
2022/04/25 00:32:23;;;;;;;13.60;8.93;;;9.00;99.90;;;;;;4997943;28;20148;-72
2022/04/25 00:34:49;;;;;;;16.08;10.00;;;9.00;99.90;;;;;;5012307;28;20087;-72
2022/04/25 00:37:15;;;;;;;14.35;9.00;;;9.00;99.90;;;;;;5012537;28;20636;-72
2022/04/25 00:39:41;;;;;;;15.48;9.57;;;9.10;99.90;;;;;;4998276;28;20056;-72
2022/04/25 00:42:07;;;;;;;14.43;10.05;;;9.10;99.90;;;;;;5019430;28;20041;-72
2022/04/25 00:44:33;;;;;;;14.82;9.80;;;9.10;99.90;;;;;;5013981;28;20053;-70
2022/04/25 00:47:00;;;;;;;14.77;9.48;;;9.10;99.90;;;;;;5016671;28;20048;-70
2022/04/25 00:49:26;;;;;;;17.25;9.93;;;9.10;99.90;;;;;;5016206;28;20036;-70
2022/04/25 00:51:52;;;;;;;14.95;10.43;;;9.20;99.90;;;;;;5014198;28;20081;-70
2022/04/25 00:54:22;;;;;;;17.02;10.60;;;9.10;99.90;;;;;;5018314;28;20145;-70
2022/04/25 00:56:49;;;;;;;27.70;9.63;;;9.10;99.90;;;;;;5014738;28;20413;-70
2022/04/25 00:59:21;;;;;;;15.38;9.75;;;9.20;99.90;;;;;;5014451;28;20492;-70
2022/04/25 01:01:48;;;;;;;18.60;10.23;;;9.20;99.90;;;;;;5010711;28;20098;-70
2022/04/25 01:04:13;;;;;;;16.48;10.60;;;9.10;99.90;;;;;;5011680;28;20055;-70
2022/04/25 01:06:40;;;;;;;16.45;11.13;;;9.20;99.90;;;;;;4994943;28;20044;-70
2022/04/25 01:09:06;;;;;;;16.67;10.60;;;9.20;99.90;;;;;;5015182;28;20083;-70
2022/04/25 01:11:32;;;;;;;17.00;10.65;;;9.20;99.90;;;;;;5014847;28;20075;-70
2022/04/25 01:14:09;;;;;;;19.30;12.05;;;9.10;99.90;;;;;;4996239;28;20040;-71
2022/04/25 01:16:35;;;;;;;17.73;12.15;;;9.00;99.90;;;;;;5007216;28;20059;-70
2022/04/25 01:19:00;;;;;;;17.77;12.38;;;8.90;99.90;;;;;;5013221;28;20045;-70
2022/04/25 01:21:28;;;;;;;17.70;12.18;;;8.80;99.90;;;;;;5014031;28;20045;-70
2022/04/25 01:29:22;;;;;;;16.92;11.32;;;8.70;99.90;;;;;;4997645;28;19929;-70
2022/04/25 01:31:48;;;;;;;17.58;11.23;;;8.60;99.90;;;;;;5011392;28;20049;-70
2022/04/25 01:34:14;;;;;;;21.00;12.77;;;8.70;99.90;;;;;;5000776;28;20121;-70
2022/04/25 01:36:40;;;;;;;18.35;12.52;;;8.70;99.90;;;;;;4996692;28;20134;-70
2022/04/25 01:39:05;;;;;;;23.65;13.48;;;8.60;99.90;;;;;;5024605;28;20044;-70
2022/04/25 01:41:31;;;;;;;21.10;13.35;;;8.70;99.90;;;;;;5010458;28;20107;-70
2022/04/25 01:43:57;;;;;;;18.42;12.30;;;8.70;99.90;;;;;;5029142;28;20057;-70
2022/04/25 01:46:23;;;;;;;20.13;14.88;;;8.60;99.90;;;;;;5025959;28;20059;-70
2022/04/25 01:48:49;;;;;;;20.08;12.70;;;8.60;99.90;;;;;;5025782;28;20472;-70
2022/04/25 01:51:15;;;;;;;23.02;15.50;;;8.60;99.90;;;;;;5023054;28;20102;-70
2022/04/25 01:53:40;;;;;;;22.42;13.25;;;8.60;99.90;;;;;;5025789;28;20110;-70
2022/04/25 01:56:07;;;;;;;20.65;13.63;;;8.70;99.90;;;;;;5032209;28;20044;-70
2022/04/25 01:58:33;;;;;;;20.50;15.18;;;8.70;99.90;;;;;;5027031;28;20063;-70
2022/04/25 02:00:59;;;;;;;22.58;13.93;;;8.70;99.90;;;;;;5026726;28;20051;-70
2022/04/25 02:03:25;;;;;;;22.35;15.55;;;8.60;99.90;;;;;;5030843;28;20601;-70
2022/04/25 02:05:51;;;;;;;22.90;15.73;;;8.60;99.90;;;;;;5026401;28;20374;-70
2022/04/25 02:08:18;;;;;;;24.05;13.95;;;8.60;99.90;;;;;;5025999;28;20940;-70
2022/04/25 02:11:19;;;;;;;23.42;14.23;;;8.60;99.90;;;;;;5007585;28;20674;-70
2022/04/25 02:13:29;;;;;;;20.00;14.32;;;8.60;99.90;;;;;;5009751;28;20048;-70
2022/04/25 02:16:05;;;;;;;22.77;14.80;;;8.60;99.90;;;;;;5027261;28;20055;-70
2022/04/25 02:18:31;;;;;;;23.88;14.20;;;8.60;99.90;;;;;;5028448;28;20053;-70
2022/04/25 02:20:57;;;;;;;21.73;13.32;;;8.40;99.90;;;;;;5025332;28;20059;-70
2022/04/25 02:23:23;;;;;;;20.77;14.18;;;8.40;99.90;;;;;;5028560;28;20072;-70
2022/04/25 02:25:49;;;;;;;20.73;12.95;;;8.30;99.90;;;;;;5025190;28;20082;-70
2022/04/25 02:28:15;;;;;;;23.73;13.48;;;8.30;99.90;;;;;;5011158;28;20586;-70
2022/04/25 02:30:41;;;;;;;24.80;13.48;;;8.20;99.90;;;;;;5027941;28;20304;-70
2022/04/25 02:33:07;;;;;;;20.10;11.57;;;8.30;99.90;;;;;;5030280;28;20048;-70
2022/04/25 02:35:33;;;;;;;21.40;13.02;;;8.30;99.90;;;;;;5025385;28;20048;-70
2022/04/25 02:37:58;;;;;;;21.90;13.45;;;8.40;99.90;;;;;;5009920;28;20052;-70
2022/04/25 02:40:24;;;;;;;22.95;12.98;;;8.30;99.90;;;;;;5027347;28;20784;-70
2022/04/25 02:42:50;;;;;;;21.50;13.23;;;8.20;99.90;;;;;;5024664;28;20073;-70
2022/04/25 02:45:16;;;;;;;22.55;12.73;;;8.20;99.90;;;;;;5026428;28;20574;-70
2022/04/25 02:47:42;;;;;;;18.85;11.90;;;8.10;99.90;;;;;;5025452;28;20076;-70
2022/04/25 02:50:08;;;;;;;16.80;11.77;;;8.20;99.90;;;;;;5026390;28;20238;-70
2022/04/25 02:52:34;;;;;;;21.88;12.20;;;8.20;99.90;;;;;;5012380;28;20086;-70
2022/04/25 02:55:00;;;;;;;19.50;13.10;;;8.10;99.90;;;;;;5027374;28;20151;-71
2022/04/25 02:57:26;;;;;;;17.67;12.18;;;8.10;99.90;;;;;;5026253;28;20036;-71
2022/04/25 02:59:52;;;;;;;19.92;13.02;;;8.10;99.90;;;;;;4992924;28;20048;-71
2022/04/25 03:02:17;;;;;;;23.80;13.57;;;8.10;99.90;;;;;;5000597;28;20044;-71
2022/04/25 03:04:43;;;;;;;19.27;11.88;;;8.20;99.90;;;;;;5025715;28;20045;-71
2022/04/25 03:07:09;;;;;;;19.77;12.38;;;8.30;99.90;;;;;;5023718;28;20044;-71
2022/04/25 03:09:35;;;;;;;19.95;12.93;;;8.20;99.90;;;;;;5024757;28;20037;-71
2022/04/25 03:12:01;;;;;;;21.02;12.18;;;8.10;99.90;;;;;;5012166;28;20696;-71
2022/04/25 03:14:27;;;;;;;23.30;13.20;;;8.00;99.90;;;;;;5027633;28;20136;-71
2022/04/25 03:16:53;;;;;;;21.13;13.02;;;8.00;99.90;;;;;;5024798;28;20053;-70
2022/04/25 03:19:18;;;;;;;19.42;12.88;;;8.00;99.90;;;;;;5006663;28;20531;-71
2022/04/25 03:21:45;;;;;;;21.33;13.15;;;7.90;99.90;;;;;;5029154;28;20047;-71
2022/04/25 03:24:11;;;;;;;20.38;12.43;;;7.90;99.90;;;;;;5003072;28;20546;-71
2022/04/25 03:26:37;;;;;;;23.95;13.50;;;7.90;99.90;;;;;;5003506;28;20083;-71
2022/04/25 03:29:03;;;;;;;20.75;14.23;;;7.80;99.90;;;;;;5026370;28;20642;-71
2022/04/25 03:31:29;;;;;;;19.73;12.63;;;7.90;99.90;;;;;;5027752;28;20044;-71
2022/04/25 03:33:54;;;;;;;21.83;14.25;;;7.80;99.90;;;;;;5026439;28;20047;-71
2022/04/25 03:36:20;;;;;;;23.70;13.88;;;8.00;99.90;;;;;;5007040;28;20052;-71
2022/04/25 03:38:46;;;;;;;24.45;13.85;;;7.90;99.90;;;;;;5021120;28;20163;-70
2022/04/25 03:41:12;;;;;;;24.42;14.93;;;8.00;99.90;;;;;;5024197;28;20046;-70
2022/04/25 03:43:38;;;;;;;21.75;13.82;;;8.10;99.90;;;;;;5002980;28;20061;-71
2022/04/25 03:46:04;;;;;;;22.88;13.68;;;8.00;99.90;;;;;;5000390;28;20053;-71
2022/04/25 03:48:30;;;;;;;25.58;13.85;;;8.00;99.90;;;;;;5003886;28;20061;-71
2022/04/25 03:50:56;;;;;;;18.70;13.75;;;7.90;99.90;;;;;;5004173;28;20087;-70
2022/04/25 03:53:22;;;;;;;23.80;14.70;;;8.00;99.90;;;;;;5004456;28;20708;-71
2022/04/25 03:58:32;;;;;;;;;;;8.00;99.90;;;;;;5001531;28;20668;-71
2022/04/25 04:00:58;;;;;;;19.60;12.23;;;8.00;99.90;;;;;;5006950;28;19924;-70
2022/04/25 04:03:24;;;;;;;23.02;13.05;;;7.90;99.90;;;;;;5006365;28;20045;-71
2022/04/25 04:05:50;;;;;;;26.75;14.77;;;8.00;99.90;;;;;;5005352;28;20111;-70
2022/04/25 04:08:17;;;;;;;22.05;12.93;;;8.10;99.90;;;;;;5003887;28;20057;-71
2022/04/25 04:10:43;;;;;;;23.17;13.10;;;8.10;99.90;;;;;;5004834;28;20111;-71
2022/04/25 04:13:09;;;;;;;23.52;13.68;;;8.10;99.90;;;;;;5005013;28;20512;-71
2022/04/25 04:15:35;;;;;;;20.17;13.43;;;8.20;99.90;;;;;;5008135;28;20102;-70
2022/04/25 04:18:01;;;;;;;24.55;13.50;;;8.20;99.90;;;;;;5012903;28;20411;-71
2022/04/25 04:20:27;;;;;;;21.02;13.23;;;8.20;99.90;;;;;;5009714;28;20813;-71
2022/04/25 04:22:53;;;;;;;22.75;14.55;;;8.20;99.90;;;;;;5009921;28;20045;-71
2022/04/25 04:25:20;;;;;;;27.83;13.02;;;8.10;99.90;;;;;;5015679;28;20541;-71
2022/04/25 04:27:48;;;;;;;26.58;14.85;;;8.20;99.90;;;;;;5012123;28;20056;-70
2022/04/25 04:30:15;;;;;;;25.73;13.20;;;8.20;99.90;;;;;;5006026;28;20045;-71
2022/04/25 04:32:41;;;;;;;23.05;14.10;;;8.20;99.90;;;;;;5012118;28;20045;-69
2022/04/25 04:35:10;;;;;;;25.42;14.20;;;8.10;99.90;;;;;;5009053;28;20136;-70
2022/04/25 04:37:38;;;;;;;23.30;13.98;;;8.20;99.90;;;;;;5004786;28;20045;-70
2022/04/25 04:42:50;;;;;;;24.00;13.77;;;8.10;99.90;;;;;;5010307;28;20959;-71
2022/04/25 04:45:16;;;;;;;22.40;14.20;;;8.00;99.90;;;;;;5029179;28;20064;-70
2022/04/25 04:47:42;;;;;;;27.98;13.93;;;8.10;99.90;;;;;;5030569;28;20055;-70
2022/04/25 04:50:14;;;;;;;20.40;12.75;;;8.20;99.90;;;;;;5026581;28;20426;-70
2022/04/25 04:52:45;;;;;;;28.83;14.38;;;8.00;99.90;;;;;;5009661;28;20045;-70
2022/04/25 04:55:11;;;;;;;27.15;14.00;;;8.10;99.90;;;;;;5016211;28;20055;-70
2022/04/25 04:57:38;;;;;;;21.58;13.70;;;8.20;99.90;;;;;;5026715;28;20049;-71
2022/04/25 05:00:06;;;;;;;23.98;14.23;;;8.00;99.90;;;;;;4995326;28;20139;-70
2022/04/25 05:02:32;;;;;;;20.88;13.13;;;8.10;99.90;;;;;;5006622;28;20059;-71
2022/04/25 05:04:58;;;;;;;29.05;14.27;;;8.10;99.90;;;;;;5014832;28;20048;-70
2022/04/25 05:07:24;;;;;;;27.10;13.32;;;8.10;99.90;;;;;;5007304;28;20060;-70
2022/04/25 05:09:51;;;;;;;23.60;13.27;;;8.10;99.90;;;;;;5013003;28;20048;-70
2022/04/25 05:12:17;;;;;;;23.33;15.13;;;8.20;99.90;;;;;;5030905;28;20060;-70
2022/04/25 05:14:43;;;;;;;20.17;14.88;;;8.10;99.90;;;;;;5027613;28;20064;-70
2022/04/25 05:17:08;;;;;;;19.40;12.07;;;8.10;99.90;;;;;;5008554;28;20044;-70
2022/04/25 05:19:34;;;;;;;33.10;13.65;;;8.10;99.90;;;;;;5008547;28;20049;-71
2022/04/25 05:22:00;;;;;;;19.60;13.85;;;8.20;99.90;;;;;;5031998;28;20106;-71
2022/04/25 05:24:26;;;;;;;26.98;13.63;;;8.00;99.90;;;;;;5031277;28;20040;-70
2022/04/25 05:26:51;;;;;;;20.15;13.02;;;8.20;99.90;;;;;;4996323;28;20909;-71
2022/04/25 05:29:17;;;;;;;19.45;13.00;;;8.30;99.90;;;;;;5030487;28;20041;-70
2022/04/25 05:31:43;;;;;;;22.80;12.88;;;8.30;99.90;;;;;;4991098;28;20103;-70
2022/04/25 05:34:09;;;;;;;20.58;13.05;;;8.20;99.90;;;;;;5011667;28;20474;-70
2022/04/25 05:36:35;;;;;;;21.60;13.68;;;8.40;99.90;;;;;;5009172;28;20051;-70
2022/04/25 05:39:01;;;;;;;20.60;13.65;;;8.50;99.90;;;;;;5028286;28;20048;-70
2022/04/25 05:41:27;;;;;;;18.90;12.55;;;8.50;99.90;;;;;;5030285;28;20050;-70
2022/04/25 05:43:53;;;;;;;23.98;13.75;;;8.40;99.90;;;;;;5025591;28;20139;-71
2022/04/25 05:46:22;;;;;;;20.55;14.23;;;8.30;99.90;;;;;;5026266;28;20925;-71
2022/04/25 05:54:17;;;;;;;22.27;12.50;;;8.20;99.90;;;;;;5020109;28;20045;-71
2022/04/25 05:56:43;;;;;;;21.98;12.88;;;8.10;99.90;;;;;;5030059;28;20836;-71
2022/04/25 05:59:10;;;;;;;25.30;12.80;;;8.20;99.90;;;;;;4992844;28;20637;-70
2022/04/25 06:01:35;;;;;;;24.27;11.82;;;8.20;99.90;;;;;;5029359;28;20511;-71
2022/04/25 06:04:01;;;;;;;21.13;13.40;;;8.30;99.90;;;;;;5010088;28;20061;-70
2022/04/25 06:06:27;;;;;;;18.80;12.27;;;8.20;99.90;;;;;;5016138;28;20049;-70
2022/04/25 06:08:53;;;;;;;19.20;12.45;;;8.20;99.90;;;;;;5027582;28;20045;-70
2022/04/25 06:11:21;;;;;;;21.70;12.32;;;8.20;99.90;;;;;;5029443;28;20057;-70
2022/04/25 06:13:47;;;;;;;20.38;12.60;;;8.20;99.90;;;;;;5025769;28;20091;-71
2022/04/25 06:16:13;;;;;;;21.85;13.75;;;8.20;99.90;;;;;;5009764;28;20168;-70
2022/04/25 06:18:39;;;;;;;22.02;14.13;;;8.20;99.90;;;;;;5026719;28;20048;-70
2022/04/25 06:21:05;;;;;;;25.85;13.82;;;8.40;99.90;;;;;;5027806;28;20395;-71
2022/04/25 06:23:31;;;;;;;26.70;12.98;;;8.50;99.90;;;;;;5009312;28;20048;-71
2022/04/25 06:25:58;;;;;;;24.30;12.27;;;8.40;99.90;;;;;;5025464;28;20041;-70
2022/04/25 06:28:28;;;;;;;22.70;13.40;;;8.40;99.90;;;;;;5022546;28;20102;-70
2022/04/25 06:30:54;;;;;;;19.35;12.75;;;8.50;99.90;;;;;;5009923;28;20108;-71
2022/04/25 06:33:20;;;;;;;26.88;14.45;;;8.50;99.90;;;;;;5025700;28;20048;-70
2022/04/25 06:35:46;;;;;;;16.77;12.10;;;8.50;99.90;;;;;;5026029;28;20057;-70
2022/04/25 06:38:15;;;;;;;26.60;13.32;;;8.50;99.90;;;;;;5008804;28;20048;-70
2022/04/25 06:40:42;;;;;;;21.90;13.30;;;8.60;99.90;;;;;;5009597;28;20107;-70
2022/04/25 06:43:09;;;;;;;25.40;13.55;;;8.40;99.90;;;;;;5025673;28;20079;-70
2022/04/25 06:45:35;;;;;;;20.65;12.90;;;8.50;99.90;;;;;;5028165;28;20060;-70
2022/04/25 06:48:01;;;;;;;20.17;13.68;;;8.30;99.90;;;;;;5027544;28;20076;-70
2022/04/25 06:50:27;;;;;;;18.65;12.20;;;8.30;99.90;;;;;;5026983;28;20040;-70
2022/04/25 06:52:53;;;;;;;18.95;12.43;;;8.40;99.90;;;;;;5004911;28;20075;-70
2022/04/25 06:55:19;;;;;;;19.75;13.20;;;8.40;99.90;;;;;;5006961;28;20805;-70
2022/04/25 06:57:47;;;;;;;22.02;14.27;;;8.50;99.90;;;;;;5021121;28;20950;-70
2022/04/25 07:00:17;;;;;;;20.67;13.48;;;8.60;99.90;;;;;;5025756;28;20056;-70
2022/04/25 07:02:44;;;;;;;19.27;12.05;;;8.60;99.90;;;;;;5025127;28;20048;-71
2022/04/25 07:05:11;;;;;;;19.20;12.63;;;8.60;99.90;;;;;;5025693;28;20045;-71
2022/04/25 07:07:38;;;;;;;21.45;13.82;;;8.60;99.90;;;;;;5020763;28;20051;-70
2022/04/25 07:10:05;;;;;;;21.08;15.40;;;8.70;99.90;;;;;;5001092;28;20488;-70
2022/04/25 07:12:31;;;;;;;19.98;13.73;;;8.60;99.90;;;;;;5004627;28;20085;-70
2022/04/25 07:14:57;;;;;;;30.30;15.00;;;8.70;99.90;;;;;;5002027;28;20041;-70
2022/04/25 07:17:23;;;;;;;21.90;14.32;;;8.60;99.90;;;;;;5007549;28;20056;-71
2022/04/25 07:19:49;;;;;;;22.98;14.93;;;8.60;99.90;;;;;;5008102;28;20213;-70
2022/04/25 07:30:30;;;;;;;20.58;13.93;;;8.60;99.90;;;;;;5007792;28;20106;-71
2022/04/25 07:32:57;;;;;;;22.10;14.13;;;8.60;99.90;;;;;;5011015;28;20057;-71
2022/04/25 07:35:22;;;;;;;21.38;15.15;;;8.60;99.90;;;;;;4976278;28;20083;-71
2022/04/25 07:37:48;;;;;;;21.52;14.68;;;8.90;99.90;;;;;;4969982;28;20143;-70
2022/04/25 07:40:14;;;;;;;23.95;15.02;;;9.00;99.90;;;;;;5007404;28;20040;-70
2022/04/25 07:42:47;;;;;;;25.13;13.80;;;9.00;99.90;;;;;;5004111;28;20044;-70
2022/04/25 07:45:13;;;;;;;21.08;13.88;;;9.00;99.90;;;;;;4995797;28;20060;-71
2022/04/25 07:47:45;;;;;;;20.35;13.88;;;8.80;99.90;;;;;;5001760;28;20562;-71
2022/04/25 07:50:12;;;;;;;23.52;13.20;;;8.90;99.90;;;;;;4988554;28;20052;-70
2022/04/25 07:52:38;;;;;;;21.08;14.80;;;8.80;99.90;;;;;;4986388;28;20052;-71
2022/04/25 07:55:05;;;;;;;26.63;15.00;;;8.80;99.90;;;;;;5003960;28;20132;-71
2022/04/25 07:57:31;;;;;;;23.73;14.82;;;8.90;99.90;;;;;;5007640;28;20060;-71
2022/04/25 07:59:57;;;;;;;21.55;13.65;;;8.70;99.90;;;;;;5006842;28;20044;-71
2022/04/25 08:02:23;;;;;;;19.92;14.38;;;8.70;99.90;;;;;;5007649;28;20176;-70
2022/04/25 08:04:49;;;;;;;22.80;16.20;;;8.70;99.90;;;;;;4999911;28;20308;-70
2022/04/25 08:07:15;;;;;;;27.75;15.43;;;8.80;99.90;;;;;;4983404;28;20055;-71
2022/04/25 08:09:41;;;;;;;24.83;15.60;;;8.90;99.90;;;;;;4985124;28;20069;-70
2022/04/25 08:17:59;;;;;;;44.83;15.02;;;9.00;99.90;;;;;;5022395;28;20053;-70
2022/04/25 08:20:37;;;;;;;21.73;14.02;;;8.90;99.90;;;;;;5011715;28;20103;-71
2022/04/25 08:23:11;;;;;;;28.90;15.02;;;8.90;99.90;;;;;;5024669;28;20808;-70
2022/04/25 08:25:41;;;;;;;20.58;14.60;;;9.00;99.90;;;;;;5027506;28;20045;-70
2022/04/25 08:28:09;;;;;;;20.77;13.90;;;8.90;99.90;;;;;;5027254;28;20440;-70
2022/04/25 08:30:36;;;;;;;20.42;14.25;;;8.80;99.90;;;;;;5033885;28;20420;-71
2022/04/25 08:33:02;;;;;;;24.20;15.35;;;9.00;99.90;;;;;;5027456;28;20041;-70
2022/04/25 08:35:28;;;;;;;22.33;16.23;;;9.00;99.90;;;;;;5010675;28;20634;-70
2022/04/25 08:37:54;;;;;;;18.67;13.82;;;9.30;99.90;;;;;;5023443;28;20056;-70
2022/04/25 08:40:21;;;;;;;23.27;14.68;;;9.40;99.90;;;;;;5013110;28;20049;-70
2022/04/25 08:42:48;;;;;;;19.20;13.77;;;9.70;99.90;;;;;;5026648;28;20147;-70
2022/04/25 08:45:15;;;;;;;21.73;16.00;;;9.80;99.90;;;;;;5013300;28;21158;-70
2022/04/25 08:47:53;;;;;;;21.48;15.75;;;9.80;99.90;;;;;;5007880;28;20060;-70
2022/04/25 08:50:20;;;;;;;22.13;16.50;;;9.80;99.90;;;;;;5005768;28;20056;-70
2022/04/25 08:52:46;;;;;;;29.25;18.20;;;9.80;99.90;;;;;;5005316;28;20045;-70
2022/04/25 08:55:14;;;;;;;33.67;19.65;;;9.70;99.90;;;;;;5009709;28;20056;-70
2022/04/25 08:57:42;;;;;;;30.80;20.10;;;9.70;99.90;;;;;;5004629;28;20060;-71
2022/04/25 09:00:08;;;;;;;44.38;24.05;;;9.80;99.90;;;;;;5003393;28;20835;-70
2022/04/25 09:02:34;;;;;;;83.38;61.83;;;10.00;99.90;;;;;;5004621;28;20057;-71
2022/04/25 09:05:01;;;;;;;31.00;21.95;;;9.90;99.90;;;;;;5006684;28;20041;-71
2022/04/25 09:07:27;;;;;;;44.80;23.60;;;9.70;99.90;;;;;;5009757;28;20045;-70
2022/04/25 09:09:54;;;;;;;29.58;21.50;;;9.70;99.90;;;;;;5006345;28;20603;-71
2022/04/25 09:12:20;;;;;;;39.60;27.77;;;9.60;99.90;;;;;;5008512;28;20130;-71
2022/04/25 09:14:46;;;;;;;35.22;23.50;;;9.60;99.90;;;;;;5012911;28;20049;-71
2022/04/25 09:17:12;;;;;;;34.30;26.58;;;9.40;99.90;;;;;;5006113;28;20098;-70
2022/04/25 09:19:39;;;;;;;30.90;23.67;;;9.30;99.90;;;;;;5009218;28;20057;-71
2022/04/25 09:22:06;;;;;;;27.23;18.85;;;9.20;99.90;;;;;;5010018;28;20076;-71
2022/04/25 09:24:43;;;;;;;32.80;18.60;;;9.50;99.90;;;;;;5013158;28;20044;-71
2022/04/25 09:27:12;;;;;;;24.58;17.48;;;9.70;99.90;;;;;;5010181;28;20099;-71
2022/04/25 09:29:40;;;;;;;20.98;14.63;;;9.40;99.90;;;;;;5010186;28;20052;-71
2022/04/25 09:32:09;;;;;;;22.90;16.83;;;9.20;99.90;;;;;;5007980;28;20056;-70
2022/04/25 09:37:40;;;;;;;22.45;14.32;;;9.50;99.90;;;;;;5016842;28;20106;-70
2022/04/25 09:40:06;;;;;;;21.70;14.85;;;9.20;99.90;;;;;;5010454;28;20403;-70
2022/04/25 09:42:32;;;;;;;23.80;16.20;;;9.20;99.90;;;;;;5004665;28;20150;-70
2022/04/25 09:45:00;;;;;;;22.15;15.93;;;9.50;99.90;;;;;;5024632;28;20412;-71
2022/04/25 09:47:31;;;;;;;25.58;16.60;;;9.40;99.90;;;;;;5013333;28;20133;-70
2022/04/25 09:50:02;;;;;;;23.60;16.63;;;9.40;99.90;;;;;;5031768;28;20056;-70
2022/04/25 09:52:29;;;;;;;25.30;16.60;;;9.50;99.90;;;;;;5028722;28;20048;-71
2022/04/25 09:54:57;;;;;;;22.92;16.60;;;9.40;99.90;;;;;;5021811;28;20118;-71
2022/04/25 09:57:32;;;;;;;25.33;16.95;;;9.30;99.90;;;;;;4989647;28;20083;-70
2022/04/25 09:59:59;;;;;;;22.48;16.75;;;9.50;99.90;;;;;;5011834;28;20044;-70
2022/04/25 10:02:25;;;;;;;21.67;14.50;;;9.80;99.90;;;;;;5005935;28;20124;-71
2022/04/25 10:04:51;;;;;;;23.38;16.52;;;9.60;99.90;;;;;;5011251;28;21339;-71
2022/04/25 10:07:22;;;;;;;25.55;16.10;;;9.70;99.90;;;;;;5005560;28;20541;-71
2022/04/25 10:09:52;;;;;;;24.95;16.48;;;9.60;99.90;;;;;;4988020;28;20067;-71
2022/04/25 10:12:21;;;;;;;24.80;16.17;;;9.60;99.90;;;;;;4994786;28;20618;-72
2022/04/25 10:14:48;;;;;;;21.83;15.82;;;9.60;99.90;;;;;;4979909;28;20109;-71
2022/04/25 10:17:15;;;;;;;22.75;16.00;;;9.50;99.90;;;;;;5001459;28;20057;-72
2022/04/25 10:19:43;;;;;;;22.50;16.27;;;9.50;99.90;;;;;;4983816;28;20053;-72
2022/04/25 10:22:10;;;;;;;24.58;15.63;;;9.50;99.90;;;;;;5004300;28;20265;-72
2022/04/25 10:24:37;;;;;;;27.23;16.40;;;9.50;99.90;;;;;;4997553;28;20075;-72
2022/04/25 10:27:12;;;;;;;18.65;14.70;;;9.60;99.90;;;;;;5009347;28;20041;-72
2022/04/25 10:29:44;;;;;;;23.83;15.50;;;9.70;99.90;;;;;;5006818;28;20675;-72
2022/04/25 10:32:11;;;;;;;21.02;15.57;;;9.70;99.90;;;;;;5008229;28;20106;-72
2022/04/25 10:34:47;;;;;;;22.52;15.05;;;9.70;99.90;;;;;;4986827;28;20313;-72
2022/04/25 10:37:51;;;;;;;21.13;15.05;;;9.90;99.90;;;;;;5009266;28;20045;-72
2022/04/25 10:44:10;;;;;;;20.13;13.20;;;10.00;99.90;;;;;;4946184;28;20085;-72
2022/04/25 10:46:03;;;;;;;23.98;16.08;;;10.10;99.90;;;;;;4993023;28;20059;-72
2022/04/25 10:48:49;;;;;;;27.63;16.08;;;10.00;99.90;;;;;;4994513;28;20049;-72
2022/04/25 10:51:17;;;;;;;23.15;15.10;;;10.20;99.90;;;;;;5010396;28;20167;-72
2022/04/25 10:54:03;;;;;;;24.17;16.27;;;9.90;99.90;;;;;;4999633;28;20142;-72
2022/04/25 10:56:30;;;;;;;26.23;15.77;;;9.90;99.90;;;;;;5013158;28;20177;-72
2022/04/25 10:59:25;;;;;;;24.98;17.00;;;10.40;99.90;;;;;;5013532;28;20048;-72
2022/04/25 11:01:52;;;;;;;26.92;17.73;;;10.40;99.90;;;;;;5015998;28;20178;-72
2022/04/25 11:04:20;;;;;;;25.50;17.45;;;10.50;99.90;;;;;;5005321;28;20498;-72
2022/04/25 11:06:47;;;;;;;25.08;16.85;;;10.40;99.90;;;;;;5002658;28;20145;-72
2022/04/25 11:09:38;;;;;;;26.20;18.42;;;10.50;99.90;;;;;;5021157;28;20125;-72
2022/04/25 11:12:04;;;;;;;24.40;16.40;;;10.40;99.90;;;;;;5017991;28;20057;-72
2022/04/25 11:14:31;;;;;;;25.58;18.08;;;10.50;99.90;;;;;;5010402;28;20503;-72
2022/04/25 11:17:12;;;;;;;26.08;17.75;;;10.50;99.90;;;;;;5027442;28;20124;-72
2022/04/25 11:19:48;;;;;;;23.60;17.02;;;10.30;99.90;;;;;;5026775;28;20040;-72
2022/04/25 11:22:31;;;;;;;24.02;16.58;;;10.40;99.90;;;;;;5028155;28;20044;-72
2022/04/25 11:25:16;;;;;;;20.27;16.15;;;10.20;99.90;;;;;;5023986;28;20041;-72
2022/04/25 11:28:01;;;;;;;19.85;15.00;;;10.20;99.90;;;;;;5008488;28;20052;-72
2022/04/25 11:30:27;;;;;;;21.73;16.75;;;10.20;99.90;;;;;;5031738;28;20045;-72
2022/04/25 11:33:00;;;;;;;21.02;16.08;;;10.40;99.90;;;;;;5033301;28;20045;-71
2022/04/25 11:35:27;;;;;;;21.55;13.85;;;10.50;99.90;;;;;;5031561;28;20566;-72
2022/04/25 11:37:56;;;;;;;17.33;12.88;;;10.80;99.90;;;;;;5025839;28;20059;-72
2022/04/25 11:40:24;;;;;;;36.05;14.50;;;10.50;99.90;;;;;;5021841;28;20045;-71
2022/04/25 11:42:50;;;;;;;21.38;15.13;;;10.80;99.90;;;;;;5032755;28;20044;-72
2022/04/25 11:45:16;;;;;;;19.17;13.98;;;11.00;99.90;;;;;;5032674;28;20060;-72
2022/04/25 11:47:42;;;;;;;17.08;12.85;;;10.70;99.90;;;;;;5023749;28;20115;-72
2022/04/25 11:50:12;;;;;;;17.50;12.80;;;10.40;99.90;;;;;;5024581;28;20657;-72
2022/04/25 11:52:48;;;;;;;18.42;14.32;;;10.30;99.90;;;;;;5028124;28;20045;-72
2022/04/25 11:55:16;;;;;;;18.75;13.38;;;10.10;99.90;;;;;;5025435;28;20052;-72
2022/04/25 11:57:43;;;;;;;18.38;12.73;;;10.60;99.90;;;;;;5029530;28;20052;-72
2022/04/25 12:00:10;;;;;;;19.80;12.30;;;10.30;99.90;;;;;;5031643;28;22753;-72
2022/04/25 12:02:37;;;;;;;21.42;12.82;;;10.60;99.90;;;;;;5010795;28;20136;-72
2022/04/25 12:05:07;;;;;;;33.13;13.02;;;10.70;99.90;;;;;;5029589;28;20049;-71
2022/04/25 12:07:37;;;;;;;22.42;12.70;;;10.80;99.90;;;;;;5012635;28;20057;-72
2022/04/25 12:18:18;;;;;;;20.75;12.30;;;11.10;99.90;;;;;;5029808;28;20133;-72
2022/04/25 12:20:49;;;;;;;17.27;13.02;;;11.80;99.90;;;;;;5027198;28;20512;-72
2022/04/25 12:23:23;;;;;;;18.35;12.02;;;11.70;99.90;;;;;;5024935;28;20037;-72
2022/04/25 12:25:51;;;;;;;19.27;13.05;;;11.30;99.90;;;;;;5027252;28;20052;-72
2022/04/25 12:28:25;;;;;;;15.35;11.95;;;11.50;99.90;;;;;;5029618;28;20123;-72
2022/04/25 12:30:58;;;;;;;18.45;12.48;;;11.50;99.90;;;;;;5027612;28;21009;-72
2022/04/25 12:33:26;;;;;;;;;;;11.40;99.90;;;;;;5031233;28;20975;-73
2022/04/25 12:36:14;;;;;;;18.70;13.20;;;11.30;99.90;;;;;;5026789;28;19974;-72
2022/04/25 12:39:00;;;;;;;16.48;11.40;;;11.30;99.90;;;;;;5027822;28;20141;-73
2022/04/25 12:41:33;;;;;;;17.95;13.18;;;11.00;99.90;;;;;;5030710;28;20132;-72
2022/04/25 12:44:11;;;;;;;16.33;12.65;;;11.30;99.90;;;;;;5016331;28;20087;-72
2022/04/25 12:46:40;;;;;;;16.60;12.32;;;10.90;99.90;;;;;;5034489;28;20091;-73
2022/04/25 12:49:11;;;;;;;23.95;14.95;;;10.70;99.90;;;;;;5023373;28;20132;-73
2022/04/25 12:51:40;;;;;;;26.67;13.45;;;10.70;99.90;;;;;;4997482;28;20057;-73
2022/04/25 12:54:25;;;;;;;18.90;13.25;;;10.80;99.90;;;;;;5017110;28;20055;-73
2022/04/25 12:56:55;;;;;;;20.65;14.13;;;10.60;99.90;;;;;;5030173;28;20222;-72
2022/04/25 12:59:29;;;;;;;23.02;13.70;;;10.70;99.90;;;;;;5030513;28;20053;-72
2022/04/25 13:02:06;;;;;;;33.35;13.73;;;10.80;99.90;;;;;;5024674;28;20037;-73
2022/04/25 13:04:32;;;;;;;18.10;14.35;;;10.60;99.90;;;;;;5020927;28;20049;-72
2022/04/25 13:06:57;;;;;;;19.15;13.88;;;10.50;99.90;;;;;;5020247;28;20490;-73
2022/04/25 13:09:23;;;;;;;20.15;14.20;;;10.40;99.90;;;;;;5003918;28;20087;-72
2022/04/25 13:11:49;;;;;;;21.38;15.80;;;10.50;99.90;;;;;;5021532;28;20114;-73
2022/04/25 13:14:15;;;;;;;22.23;16.40;;;10.40;99.90;;;;;;5027074;28;20087;-73
2022/04/25 13:16:41;;;;;;;20.80;14.55;;;10.20;99.90;;;;;;5001257;28;20490;-73
2022/04/25 13:19:07;;;;;;;22.17;16.33;;;10.30;99.90;;;;;;5019834;28;20057;-72
2022/04/25 13:21:38;;;;;;;25.95;16.15;;;10.20;99.90;;;;;;5014984;28;20099;-72
2022/04/25 13:24:04;;;;;;;23.60;14.32;;;10.20;99.90;;;;;;5012226;28;20122;-72